Charlotte, NC

12:12 AM EST on November 24, 2014 (GMT -0500)
APRSWXNET Charlotte NC US | Change Station
CLOSE
Current Station
Personal Weather Station
Location: Paw Creek, NC
Elevation: 679 ft
Nearby Weather Stations

Elev 679 ft 35.31 °N, 80.95 °W | Updated 55 minutes ago

Overcast
Overcast
64 °F
Feels Like 64 °F
N
2
Wind Variable Wind from SSE
Gusts 9.0 mph

Today
High -- | Low -- °F
--% Chance of Precip.
Yesterday
High -- | Low -- °F
Precip. -- in
7:07 AM 5:12 PM
Waxing Crescent, 4% visible
Pressure 29.73 in
Visibility 10.0 miles
Clouds Scattered Clouds 1900 ft
Mostly Cloudy 2500 ft
Overcast 3500 ft
Dew Point 62 °F
Humidity 93%
Rainfall 1.50 in
Snow Depth Not available.
UV 0 out of 12
Pollen .40 out of 12
Air Quality Not available.
Flu Activity Not available.
SPECI KCLT 240503Z 21016G21KT 10SM SCT019 BKN025 OVC035 18/15 A2973 RMK AO2

More Conditions Fewer Conditions

Pressure 29.73 in
Visibility 10.0 miles
Clouds Scattered Clouds 1900 ft
Mostly Cloudy 2500 ft
Overcast 3500 ft
Dew Point 62 °F
Humidity 93%
Rainfall 1.50 in
Snow Depth Not available.
UV 0 out of 12
Pollen .40 out of 12
Air Quality Not available.
Flu Activity Not available.
SPECI KCLT 240503Z 21016G21KT 10SM SCT019 BKN025 OVC035 18/15 A2973 RMK AO2

More Conditions Fewer Conditions

10-Day Weather Forecast

Almanac

Astronomy

Nov. 24, 2014 Rise Set
Actual Time
Civil Twilight
Nautical Twilight
Astronomical Twilight
Moon
Length of Visible Light
Length of Day
Tomorrow will be .
, % of the Moon is Illuminated

Today's Extremes

State Highs State Lows

Community

WunderPhotos

Upload Photos

1,773,269 photos uploaded!

WunderBlogs® & News

Nearby

Air Quality

  Air Quality AQ Index Pollutant
Not available.

Snow Depth

Station Depth Elevation

Earthquake Activity

City Distance Mag. Time & Date
Minimum magnitude displayed is 2.5.

Coastal Water Temperatures

Place Temperature

Nearby Weather Stations